createdAt,value
2022-10-08T00:00:46.752Z,0.00
2022-10-08T00:01:47.125Z,0.00
2022-10-08T00:02:47.584Z,1.00
2022-10-08T00:03:47.726Z,0.00
2022-10-08T00:04:47.899Z,0.00
2022-10-08T00:05:48.307Z,0.00
2022-10-08T00:06:48.634Z,0.00
2022-10-08T00:07:48.786Z,0.00
2022-10-08T00:08:49.057Z,0.00
2022-10-08T00:09:49.376Z,0.00
2022-10-08T00:10:49.670Z,0.00
2022-10-08T00:11:50.025Z,0.00
2022-10-08T00:12:50.326Z,0.00
2022-10-08T00:13:50.572Z,0.00
2022-10-08T00:14:50.869Z,0.00
2022-10-08T00:15:51.110Z,0.00
2022-10-08T00:16:51.354Z,0.00
2022-10-08T00:17:51.653Z,0.00
2022-10-08T00:18:51.930Z,0.00
2022-10-08T00:19:52.160Z,1.00
2022-10-08T00:20:52.583Z,0.00
2022-10-08T00:21:52.853Z,0.00
2022-10-08T00:22:53.097Z,0.00
2022-10-08T00:23:53.405Z,0.00
2022-10-08T00:24:53.721Z,0.00
2022-10-08T00:25:53.952Z,0.00
2022-10-08T00:26:54.241Z,0.00
2022-10-08T00:27:54.601Z,0.00
2022-10-08T00:28:54.838Z,0.00
2022-10-08T00:29:55.098Z,0.00
2022-10-08T00:30:55.370Z,0.00
2022-10-08T00:31:55.746Z,0.00
2022-10-08T00:32:59.836Z,0.00
2022-10-08T00:33:56.257Z,0.00
2022-10-08T00:34:56.565Z,1.00
2022-10-08T00:35:56.844Z,0.00
2022-10-08T00:36:57.078Z,1.00
2022-10-08T00:37:58.448Z,1.00
2022-10-08T00:38:57.659Z,0.00
2022-10-08T00:39:57.982Z,0.00
2022-10-08T00:40:58.301Z,0.00
2022-10-08T00:41:58.521Z,0.00
2022-10-08T00:42:58.815Z,0.00
2022-10-08T00:43:59.112Z,0.00
2022-10-08T00:44:59.446Z,0.00
2022-10-08T00:45:59.750Z,0.00
2022-10-08T00:47:00.035Z,0.00
2022-10-08T00:48:00.373Z,0.00
2022-10-08T00:49:00.773Z,0.00
2022-10-08T00:50:00.915Z,1.00
2022-10-08T00:51:01.244Z,0.00
2022-10-08T00:52:01.550Z,0.00
2022-10-08T00:53:01.868Z,0.00
2022-10-08T00:54:02.201Z,0.00
2022-10-08T00:55:02.448Z,1.00
2022-10-08T00:56:02.847Z,0.00
2022-10-08T00:57:03.183Z,0.00
2022-10-08T00:58:03.498Z,0.00
2022-10-08T00:59:03.776Z,0.00
2022-10-08T01:00:04.121Z,0.00
2022-10-08T01:01:04.437Z,0.00
2022-10-08T01:02:04.760Z,0.00
2022-10-08T01:03:05.048Z,0.00
2022-10-08T01:04:05.381Z,0.00
2022-10-08T01:05:05.680Z,0.00
2022-10-08T01:06:05.941Z,0.00
2022-10-08T01:07:06.199Z,0.00
2022-10-08T01:08:06.558Z,0.00
2022-10-08T01:09:06.827Z,0.00
2022-10-08T01:10:07.154Z,0.00
2022-10-08T01:11:07.511Z,0.00
2022-10-08T01:12:07.812Z,0.00
2022-10-08T01:13:08.153Z,0.00
2022-10-08T01:14:08.388Z,0.00
2022-10-08T01:15:08.681Z,0.00
2022-10-08T01:16:08.971Z,0.00
2022-10-08T01:17:09.254Z,0.00
2022-10-08T01:18:09.476Z,0.00
2022-10-08T01:19:09.778Z,0.00
2022-10-08T01:20:09.997Z,0.00
2022-10-08T01:21:10.396Z,0.00
2022-10-08T01:22:10.627Z,0.00
2022-10-08T01:23:10.938Z,0.00
2022-10-08T01:24:11.148Z,0.00
2022-10-08T01:25:11.463Z,0.00
2022-10-08T01:26:11.746Z,0.00
2022-10-08T01:27:12.040Z,0.00
2022-10-08T01:28:12.511Z,0.00
2022-10-08T01:29:12.586Z,1.00
2022-10-08T01:30:12.927Z,0.00
2022-10-08T01:31:13.285Z,0.00
2022-10-08T01:32:13.461Z,0.00
2022-10-08T01:33:13.748Z,0.00
2022-10-08T01:34:14.099Z,0.00
2022-10-08T01:35:14.480Z,0.00
2022-10-08T01:36:14.674Z,0.00
2022-10-08T01:37:14.957Z,0.00
2022-10-08T01:38:15.249Z,0.00
2022-10-08T01:39:15.566Z,0.00
2022-10-08T01:40:15.861Z,0.00
2022-10-08T01:41:16.206Z,1.00
2022-10-08T01:42:17.407Z,1.00
2022-10-08T01:43:16.863Z,0.00
2022-10-08T01:44:17.090Z,1.00
2022-10-08T01:45:17.435Z,0.00
2022-10-08T01:46:17.822Z,0.00
2022-10-08T01:47:18.007Z,0.00
2022-10-08T01:48:18.329Z,0.00
2022-10-08T01:49:18.620Z,0.00
2022-10-08T01:50:18.925Z,0.00
2022-10-08T01:51:19.253Z,0.00
2022-10-08T01:52:19.440Z,0.00
2022-10-08T01:53:19.744Z,0.00
2022-10-08T01:54:20.006Z,0.00
2022-10-08T01:55:21.178Z,0.00
2022-10-08T01:56:20.529Z,0.00
2022-10-08T01:57:20.745Z,0.00
2022-10-08T01:58:21.056Z,0.00
2022-10-08T01:59:21.353Z,0.00
2022-10-08T02:00:21.659Z,0.00
2022-10-08T02:01:22.071Z,0.00
2022-10-08T02:02:22.300Z,0.00
2022-10-08T02:03:22.531Z,0.00
2022-10-08T02:04:22.767Z,0.00
2022-10-08T02:05:23.043Z,0.00
2022-10-08T02:06:23.379Z,0.00
2022-10-08T02:07:23.775Z,1.00
2022-10-08T02:08:23.932Z,0.00
2022-10-08T02:09:24.218Z,0.00
2022-10-08T02:10:24.546Z,0.00
2022-10-08T02:11:24.893Z,0.00
2022-10-08T02:12:25.055Z,0.00
2022-10-08T02:13:25.353Z,0.00
2022-10-08T02:14:25.541Z,0.00
2022-10-08T02:15:25.878Z,0.00
2022-10-08T02:16:26.259Z,0.00
2022-10-08T02:17:26.437Z,0.00
2022-10-08T02:18:26.656Z,0.00
2022-10-08T02:19:26.989Z,0.00
2022-10-08T02:20:27.239Z,0.00
2022-10-08T02:21:27.487Z,0.00
2022-10-08T02:22:27.756Z,1.00
2022-10-08T02:23:28.097Z,0.00
2022-10-08T02:24:28.441Z,0.00
2022-10-08T02:25:28.722Z,0.00
2022-10-08T02:26:28.938Z,1.00
2022-10-08T02:27:29.452Z,0.00
2022-10-08T02:28:29.716Z,0.00
2022-10-08T02:29:29.892Z,0.00
2022-10-08T02:30:30.185Z,0.00
2022-10-08T02:31:30.595Z,0.00
2022-10-08T02:32:30.791Z,0.00
2022-10-08T02:33:31.025Z,0.00
2022-10-08T02:34:31.335Z,0.00
2022-10-08T02:35:31.558Z,0.00
2022-10-08T02:36:31.862Z,0.00
2022-10-08T02:37:32.165Z,0.00
2022-10-08T02:38:32.553Z,0.00
2022-10-08T02:39:32.787Z,0.00
2022-10-08T02:40:32.988Z,0.00
2022-10-08T02:41:33.290Z,0.00
2022-10-08T02:42:33.487Z,1.00
2022-10-08T02:43:33.823Z,0.00
2022-10-08T02:44:34.341Z,0.00
2022-10-08T02:45:34.518Z,0.00
2022-10-08T02:46:34.661Z,1.00
2022-10-08T02:47:35.067Z,0.00
2022-10-08T02:48:35.339Z,0.00
2022-10-08T02:49:35.608Z,0.00
2022-10-08T02:50:35.963Z,0.00
2022-10-08T02:51:36.332Z,0.00
2022-10-08T02:52:36.537Z,0.00
2022-10-08T02:53:36.837Z,0.00
2022-10-08T02:54:37.131Z,0.00
2022-10-08T02:55:37.472Z,0.00
2022-10-08T02:56:37.782Z,0.00
2022-10-08T02:57:38.097Z,0.00
2022-10-08T02:58:38.390Z,0.00
2022-10-08T02:59:38.680Z,0.00
2022-10-08T03:00:39.005Z,0.00
2022-10-08T03:01:39.433Z,0.00
2022-10-08T03:02:39.655Z,0.00
2022-10-08T03:03:39.858Z,0.00
2022-10-08T03:04:40.214Z,0.00
2022-10-08T03:05:40.508Z,0.00
2022-10-08T03:06:40.813Z,0.00
2022-10-08T03:07:41.111Z,0.00
2022-10-08T03:08:41.422Z,0.00
2022-10-08T03:09:41.737Z,0.00
2022-10-08T03:10:42.021Z,0.00
2022-10-08T03:11:42.263Z,0.00
2022-10-08T03:12:42.542Z,0.00
2022-10-08T03:13:42.891Z,0.00
2022-10-08T03:14:43.164Z,0.00
2022-10-08T03:15:43.491Z,0.00
2022-10-08T03:16:43.936Z,0.00
2022-10-08T03:17:44.072Z,0.00
2022-10-08T03:18:44.391Z,0.00
2022-10-08T03:19:44.702Z,0.00
2022-10-08T03:20:45.035Z,0.00
2022-10-08T03:21:45.295Z,0.00
2022-10-08T03:22:45.942Z,0.00
2022-10-08T03:23:45.936Z,0.00
2022-10-08T03:24:46.237Z,0.00
2022-10-08T03:25:46.494Z,0.00
2022-10-08T03:26:46.808Z,0.00
2022-10-08T03:27:47.109Z,0.00
2022-10-08T03:28:47.405Z,0.00
2022-10-08T03:29:47.624Z,0.00
2022-10-08T03:30:47.994Z,0.00
2022-10-08T03:31:48.201Z,0.00
2022-10-08T03:32:48.919Z,0.00
2022-10-08T03:33:48.753Z,0.00
2022-10-08T03:34:49.087Z,0.00
2022-10-08T03:35:49.275Z,0.00
2022-10-08T03:36:49.627Z,0.00
2022-10-08T03:37:49.844Z,0.00
2022-10-08T03:38:50.127Z,0.00
2022-10-08T03:39:50.458Z,0.00
2022-10-08T03:40:50.769Z,0.00
2022-10-08T03:41:51.153Z,0.00
2022-10-08T03:42:51.440Z,0.00
2022-10-08T03:43:51.627Z,0.00
2022-10-08T03:44:52.015Z,0.00
2022-10-08T03:45:52.288Z,0.00
2022-10-08T03:46:52.501Z,0.00
2022-10-08T03:47:52.846Z,0.00
2022-10-08T03:48:53.181Z,0.00
2022-10-08T03:49:53.455Z,0.00
2022-10-08T03:50:53.684Z,0.00
2022-10-08T03:51:53.987Z,0.00
2022-10-08T03:52:54.321Z,0.00
2022-10-08T03:53:54.533Z,0.00
2022-10-08T03:54:54.819Z,0.00
2022-10-08T03:55:55.057Z,1.00
2022-10-08T03:56:55.385Z,0.00
2022-10-08T03:57:55.702Z,0.00
2022-10-08T03:58:56.010Z,0.00
2022-10-08T03:59:56.320Z,0.00
2022-10-08T04:00:56.602Z,0.00
2022-10-08T04:01:56.986Z,0.00
2022-10-08T04:02:57.220Z,1.00
2022-10-08T04:03:57.525Z,0.00
2022-10-08T04:04:57.761Z,0.00
2022-10-08T04:05:57.997Z,0.00
2022-10-08T04:06:58.325Z,0.00
2022-10-08T04:07:58.656Z,0.00
2022-10-08T04:08:58.971Z,0.00
2022-10-08T04:09:59.254Z,0.00
2022-10-08T04:10:59.554Z,0.00
2022-10-08T04:11:59.898Z,0.00
2022-10-08T04:13:00.195Z,0.00
2022-10-08T04:14:00.575Z,0.00
2022-10-08T04:15:00.772Z,0.00
2022-10-08T04:16:01.106Z,0.00
2022-10-08T04:17:01.421Z,0.00
2022-10-08T04:18:01.738Z,0.00
2022-10-08T04:19:02.154Z,0.00
2022-10-08T04:20:02.406Z,0.00
2022-10-08T04:21:02.608Z,0.00
2022-10-08T04:22:02.905Z,0.00
2022-10-08T04:23:03.194Z,0.00
2022-10-08T04:24:03.550Z,0.00
2022-10-08T04:25:03.834Z,0.00
2022-10-08T04:26:04.167Z,0.00
2022-10-08T04:27:04.462Z,0.00
2022-10-08T04:28:04.873Z,0.00
2022-10-08T04:29:05.028Z,0.00
2022-10-08T04:30:05.391Z,0.00
2022-10-08T04:31:05.535Z,1.00
2022-10-08T04:32:05.893Z,0.00
2022-10-08T04:33:06.069Z,0.00
2022-10-08T04:34:06.452Z,0.00
2022-10-08T04:35:06.629Z,0.00
2022-10-08T04:36:06.949Z,0.00
2022-10-08T04:37:07.262Z,0.00
2022-10-08T04:38:07.594Z,0.00
2022-10-08T04:39:07.907Z,0.00
2022-10-08T04:40:08.174Z,0.00
2022-10-08T04:41:08.516Z,0.00
2022-10-08T04:42:08.824Z,0.00
2022-10-08T04:43:09.001Z,0.00
2022-10-08T04:44:09.372Z,0.00
2022-10-08T04:45:09.552Z,0.00
2022-10-08T04:46:09.900Z,0.00
2022-10-08T04:47:10.221Z,0.00
2022-10-08T04:48:10.388Z,0.00
2022-10-08T04:49:10.718Z,0.00
2022-10-08T04:50:11.034Z,0.00
2022-10-08T04:51:11.310Z,0.00
2022-10-08T04:52:11.682Z,0.00
2022-10-08T04:53:11.886Z,1.00
2022-10-08T04:54:12.113Z,1.00
2022-10-08T04:55:12.572Z,0.00
2022-10-08T04:56:12.722Z,0.00
2022-10-08T04:57:13.144Z,0.00
2022-10-08T04:58:13.428Z,0.00
2022-10-08T04:59:13.695Z,0.00
2022-10-08T05:00:18.291Z,0.00
2022-10-08T05:01:15.359Z,0.00
2022-10-08T05:02:14.726Z,0.00
2022-10-08T05:03:14.953Z,0.00
2022-10-08T05:04:15.200Z,0.00
2022-10-08T05:05:15.513Z,0.00
2022-10-08T05:06:15.774Z,1.00
2022-10-08T05:07:16.131Z,1.00
2022-10-08T05:08:16.280Z,1.00
2022-10-08T05:09:16.562Z,1.00
2022-10-08T05:10:17.084Z,1.00
2022-10-08T05:11:17.220Z,1.00
2022-10-08T05:12:17.272Z,1.00
2022-10-08T05:13:17.658Z,0.00
2022-10-08T05:14:18.071Z,0.00
2022-10-08T05:15:18.164Z,2.00
2022-10-08T05:16:18.569Z,1.00
2022-10-08T05:17:18.679Z,1.00
2022-10-08T05:18:19.001Z,2.00
2022-10-08T05:19:19.350Z,2.00
2022-10-08T05:20:19.598Z,3.00
2022-10-08T05:21:19.806Z,8.00
2022-10-08T05:22:20.127Z,6.00
2022-10-08T05:23:20.503Z,8.00
2022-10-08T05:24:20.735Z,8.00
2022-10-08T05:25:20.980Z,9.00
2022-10-08T05:26:31.848Z,2.00
2022-10-08T05:27:22.516Z,11.00
2022-10-08T05:28:22.641Z,14.00
2022-10-08T05:29:22.003Z,17.00
2022-10-08T05:30:22.284Z,19.00
2022-10-08T05:31:22.538Z,23.00
2022-10-08T05:32:22.812Z,25.00
2022-10-08T05:33:23.070Z,29.00
2022-10-08T05:34:23.297Z,26.00
2022-10-08T05:35:23.534Z,34.00
2022-10-08T05:36:23.904Z,35.00
2022-10-08T05:37:24.176Z,42.00
2022-10-08T05:38:24.442Z,42.00
2022-10-08T05:39:24.645Z,50.00
2022-10-08T05:40:24.983Z,52.00
2022-10-08T05:41:25.424Z,56.00
2022-10-08T05:42:25.609Z,55.00
2022-10-08T05:43:25.829Z,63.00
2022-10-08T05:44:26.062Z,67.00
2022-10-08T05:45:26.296Z,71.00
2022-10-08T05:46:26.708Z,70.00
2022-10-08T05:47:26.925Z,78.00
2022-10-08T05:48:28.111Z,81.00
2022-10-08T05:49:27.464Z,90.00
2022-10-08T05:50:27.837Z,94.00
2022-10-08T05:51:28.024Z,95.00
2022-10-08T05:52:28.307Z,103.00
2022-10-08T05:53:28.549Z,107.00
2022-10-08T05:54:28.811Z,114.00
2022-10-08T05:55:29.035Z,117.00
2022-10-08T05:56:29.413Z,127.00
2022-10-08T05:57:29.626Z,132.00
2022-10-08T05:58:30.643Z,139.00
2022-10-08T05:59:30.279Z,140.00
2022-10-08T06:00:30.497Z,146.00
2022-10-08T06:01:30.887Z,154.00
2022-10-08T06:02:31.178Z,162.00
2022-10-08T06:03:31.437Z,167.00
2022-10-08T06:04:31.868Z,171.00
2022-10-08T06:05:31.976Z,186.00
2022-10-08T06:06:32.256Z,191.00
2022-10-08T06:07:32.470Z,209.00
2022-10-08T06:08:32.716Z,211.00
2022-10-08T06:09:32.944Z,219.00
2022-10-08T06:10:33.269Z,223.00
2022-10-08T06:11:33.566Z,237.00
2022-10-08T06:12:33.767Z,239.00
2022-10-08T06:13:34.038Z,244.00
2022-10-08T06:14:34.275Z,248.00
2022-10-08T06:15:34.511Z,252.00
2022-10-08T06:16:34.890Z,258.00
2022-10-08T06:17:35.150Z,257.00
2022-10-08T06:18:35.357Z,268.00
2022-10-08T06:19:35.728Z,280.00
2022-10-08T06:20:35.978Z,284.00
2022-10-08T06:21:36.193Z,295.00
2022-10-08T06:22:36.420Z,298.00
2022-10-08T06:23:36.795Z,300.00
2022-10-08T06:24:37.073Z,314.00
2022-10-08T06:25:37.316Z,325.00
2022-10-08T06:26:37.577Z,327.00
2022-10-08T06:27:37.811Z,343.00
2022-10-08T06:28:38.188Z,345.00
2022-10-08T06:29:38.382Z,353.00
2022-10-08T06:30:38.650Z,365.00
2022-10-08T06:31:39.008Z,370.00
2022-10-08T06:32:39.135Z,383.00
2022-10-08T06:33:39.407Z,399.00
2022-10-08T06:34:39.681Z,413.00
2022-10-08T06:35:39.938Z,425.00
2022-10-08T06:36:40.196Z,435.00
2022-10-08T06:37:40.434Z,444.00
2022-10-08T06:38:40.699Z,450.00
2022-10-08T06:39:44.898Z,460.00
2022-10-08T06:40:42.234Z,462.00
2022-10-08T06:41:41.528Z,481.00
2022-10-08T06:42:41.801Z,498.00
2022-10-08T06:43:42.018Z,516.00
2022-10-08T06:44:42.285Z,517.00
2022-10-08T06:45:42.655Z,517.00
2022-10-08T06:46:42.899Z,545.00
2022-10-08T06:47:43.068Z,545.00
2022-10-08T06:48:43.307Z,562.00
2022-10-08T06:49:43.550Z,560.00
2022-10-08T06:50:43.785Z,552.00
2022-10-08T06:51:44.118Z,556.00
2022-10-08T06:52:44.675Z,561.00
2022-10-08T06:53:44.584Z,560.00
2022-10-08T06:54:44.813Z,558.00
2022-10-08T06:55:45.173Z,565.00
2022-10-08T06:56:45.409Z,572.00
2022-10-08T06:57:45.687Z,574.00
2022-10-08T06:58:45.886Z,576.00
2022-10-08T06:59:46.245Z,599.00
2022-10-08T07:00:46.542Z,595.00
2022-10-08T07:01:46.885Z,619.00
2022-10-08T07:02:47.387Z,624.00
2022-10-08T07:03:47.379Z,610.00
2022-10-08T07:04:47.832Z,630.00
2022-10-08T07:05:47.882Z,676.00
2022-10-08T07:06:48.143Z,704.00
2022-10-08T07:07:48.421Z,660.00
2022-10-08T07:08:48.684Z,705.00
2022-10-08T07:09:48.952Z,715.00
2022-10-08T07:10:49.174Z,725.00
2022-10-08T07:11:49.423Z,730.00
2022-10-08T07:12:50.262Z,730.00
2022-10-08T07:13:49.931Z,647.00
2022-10-08T07:14:50.219Z,808.00
2022-10-08T07:15:50.432Z,821.00
2022-10-08T07:16:50.699Z,810.00
2022-10-08T07:17:50.946Z,746.00
2022-10-08T07:18:51.175Z,767.00
2022-10-08T07:19:52.659Z,764.00
2022-10-08T07:20:51.703Z,815.00
2022-10-08T07:21:52.837Z,793.00
2022-10-08T07:22:52.217Z,744.00
2022-10-08T07:23:52.507Z,797.00
2022-10-08T07:24:52.749Z,818.00
2022-10-08T07:25:53.004Z,812.00
2022-10-08T07:26:53.411Z,745.00
2022-10-08T07:27:53.569Z,916.00
2022-10-08T07:28:53.956Z,789.00
2022-10-08T07:29:54.193Z,872.00
2022-10-08T07:30:54.426Z,854.00
2022-10-08T07:31:54.806Z,860.00
2022-10-08T07:32:54.990Z,834.00
2022-10-08T07:33:55.223Z,829.00
2022-10-08T07:34:59.266Z,875.00
2022-10-08T07:35:55.804Z,817.00
2022-10-08T07:36:56.042Z,852.00
2022-10-08T07:37:56.287Z,880.00
2022-10-08T07:38:56.518Z,891.00
2022-10-08T07:39:56.795Z,1037.00
2022-10-08T07:40:57.009Z,929.00
2022-10-08T07:41:57.300Z,840.00
2022-10-08T07:42:57.540Z,936.00
2022-10-08T07:43:57.839Z,1009.00
2022-10-08T07:44:58.110Z,978.00
2022-10-08T07:45:58.387Z,1180.00
2022-10-08T07:46:58.628Z,1097.00
2022-10-08T07:47:58.861Z,1296.00
2022-10-08T07:48:59.347Z,997.00
2022-10-08T07:49:59.385Z,582.00
2022-10-08T07:50:59.710Z,1239.00
2022-10-08T07:51:59.885Z,1079.00
2022-10-08T07:53:00.131Z,954.00
2022-10-08T07:54:02.716Z,1082.00
2022-10-08T07:55:00.670Z,489.00
2022-10-08T07:56:00.970Z,722.00
2022-10-08T07:57:01.234Z,1308.00
2022-10-08T07:58:01.468Z,1565.00
2022-10-08T07:59:01.703Z,997.00
2022-10-08T08:00:02.120Z,1444.00
2022-10-08T08:01:02.303Z,884.00
2022-10-08T08:02:02.603Z,1707.00
2022-10-08T08:03:02.798Z,1387.00
2022-10-08T08:04:03.077Z,1515.00
2022-10-08T08:05:03.463Z,1429.00
2022-10-08T08:06:03.723Z,1547.00
2022-10-08T08:07:04.412Z,1507.00
2022-10-08T08:08:04.319Z,1453.00
2022-10-08T08:09:04.536Z,1435.00
2022-10-08T08:10:04.818Z,1684.00
2022-10-08T08:11:05.059Z,1467.00
2022-10-08T08:12:05.519Z,1420.00
2022-10-08T08:13:05.681Z,1598.00
2022-10-08T08:14:05.928Z,2005.00
2022-10-08T08:15:06.179Z,1746.00
2022-10-08T08:16:06.487Z,2075.00
2022-10-08T08:17:06.818Z,2192.00
2022-10-08T08:18:07.019Z,2172.00
2022-10-08T08:19:07.315Z,2297.00
2022-10-08T08:20:07.554Z,2350.00
2022-10-08T08:21:07.825Z,2211.00
2022-10-08T08:22:08.076Z,2005.00
2022-10-08T08:23:08.365Z,1760.00
2022-10-08T08:24:08.715Z,1877.00
2022-10-08T08:25:08.937Z,2279.00
2022-10-08T08:26:09.218Z,2234.00
2022-10-08T08:27:09.474Z,2062.00
2022-10-08T08:28:10.181Z,2105.00
2022-10-08T08:29:10.110Z,2417.00
2022-10-08T08:30:10.355Z,1938.00
2022-10-08T08:31:10.612Z,1783.00
2022-10-08T08:32:10.915Z,802.00
2022-10-08T08:33:11.161Z,1503.00
2022-10-08T08:34:11.528Z,1862.00
2022-10-08T08:35:11.883Z,1395.00
2022-10-08T08:36:11.998Z,1609.00
2022-10-08T08:37:12.389Z,2540.00
2022-10-08T08:38:12.769Z,1076.00
2022-10-08T08:39:12.746Z,2102.00
2022-10-08T08:40:13.995Z,1447.00
2022-10-08T08:41:17.426Z,1458.00
2022-10-08T08:42:14.746Z,1494.00
2022-10-08T08:43:13.952Z,1514.00
2022-10-08T08:44:14.188Z,1482.00
2022-10-08T08:45:34.241Z,1461.00
2022-10-08T08:46:15.758Z,1416.00
2022-10-08T08:47:15.058Z,1466.00
2022-10-08T08:48:15.170Z,1465.00
2022-10-08T08:49:15.435Z,1513.00
2022-10-08T08:50:15.734Z,1416.00
2022-10-08T08:51:15.958Z,1421.00
2022-10-08T08:52:16.250Z,1373.00
2022-10-08T08:53:16.500Z,1357.00
2022-10-08T08:54:16.741Z,1576.00
2022-10-08T08:55:17.245Z,1296.00
2022-10-08T08:56:17.418Z,1424.00
2022-10-08T08:57:17.639Z,1385.00
2022-10-08T08:58:17.874Z,1109.00
2022-10-08T08:59:18.165Z,1444.00
2022-10-08T09:00:18.447Z,1369.00
2022-10-08T09:01:18.842Z,1453.00
2022-10-08T09:02:18.948Z,1478.00
2022-10-08T09:03:19.205Z,1461.00
2022-10-08T09:04:19.425Z,1588.00
2022-10-08T09:05:19.757Z,1470.00
2022-10-08T09:06:20.023Z,1463.00
2022-10-08T09:07:20.295Z,1489.00
2022-10-08T09:08:20.566Z,1547.00
2022-10-08T09:09:20.855Z,1405.00
2022-10-08T09:10:21.034Z,1526.00
2022-10-08T09:11:21.409Z,1603.00
2022-10-08T09:12:21.756Z,1540.00
2022-10-08T09:13:21.952Z,1539.00
2022-10-08T09:14:22.222Z,1570.00
2022-10-08T09:15:22.505Z,1556.00
2022-10-08T09:16:22.859Z,1573.00
2022-10-08T09:17:23.059Z,1548.00
2022-10-08T09:18:23.439Z,1533.00
2022-10-08T09:19:23.603Z,1427.00
2022-10-08T09:20:23.859Z,1481.00
2022-10-08T09:21:24.102Z,1477.00
2022-10-08T09:22:24.324Z,1455.00
2022-10-08T09:23:24.558Z,1542.00
2022-10-08T09:24:24.875Z,1691.00
2022-10-08T09:25:25.095Z,1423.00
2022-10-08T09:26:25.352Z,1552.00
2022-10-08T09:27:25.633Z,1605.00
2022-10-08T09:28:26.017Z,1552.00
2022-10-08T09:29:26.212Z,1828.00
2022-10-08T09:30:26.780Z,1770.00
2022-10-08T09:31:26.832Z,1666.00
2022-10-08T09:32:27.557Z,1961.00
2022-10-08T09:33:27.330Z,2301.00
2022-10-08T09:34:27.559Z,2981.00
2022-10-08T09:35:27.819Z,3809.00
2022-10-08T09:36:28.517Z,4228.00
2022-10-08T09:37:28.383Z,3776.00
2022-10-08T09:38:28.611Z,4055.00
2022-10-08T09:39:28.865Z,3559.00
2022-10-08T09:40:29.125Z,3443.00
2022-10-08T09:41:29.426Z,3364.00
2022-10-08T09:42:29.631Z,2625.00
2022-10-08T09:43:29.883Z,2568.00
2022-10-08T09:44:30.127Z,2415.00
2022-10-08T09:45:30.392Z,2404.00
2022-10-08T09:46:30.690Z,2177.00
2022-10-08T09:47:31.063Z,2877.00
2022-10-08T09:48:31.129Z,3056.00
2022-10-08T09:49:31.501Z,3488.00
2022-10-08T09:50:31.764Z,4312.00
2022-10-08T09:51:32.213Z,4233.00
2022-10-08T09:52:32.305Z,3772.00
2022-10-08T09:53:32.632Z,2649.00
2022-10-08T09:54:32.824Z,3503.00
2022-10-08T09:55:33.135Z,3740.00
2022-10-08T09:56:33.380Z,4860.00
2022-10-08T09:57:33.669Z,4483.00
2022-10-08T09:58:33.930Z,5173.00
2022-10-08T09:59:34.229Z,5540.00
2022-10-08T10:00:34.499Z,5107.00
2022-10-08T10:01:34.791Z,5180.00
2022-10-08T10:02:35.047Z,4546.00
2022-10-08T10:03:35.519Z,4656.00
2022-10-08T10:04:36.539Z,4663.00
2022-10-08T10:05:35.956Z,4780.00
2022-10-08T10:06:36.201Z,5224.00
2022-10-08T10:07:36.455Z,6107.00
2022-10-08T10:08:36.681Z,3728.00
2022-10-08T10:09:36.975Z,7920.00
2022-10-08T10:10:37.372Z,4179.00
2022-10-08T10:11:37.584Z,3938.00
2022-10-08T10:12:37.783Z,7205.00
2022-10-08T10:13:38.076Z,2853.00
2022-10-08T10:14:38.419Z,3056.00
2022-10-08T10:15:38.670Z,4840.00
2022-10-08T10:16:38.974Z,4403.00
2022-10-08T10:17:39.188Z,3845.00
2022-10-08T10:18:40.391Z,6908.00
2022-10-08T10:19:39.886Z,11951.00
2022-10-08T10:20:40.312Z,4455.00
2022-10-08T10:21:40.396Z,2767.00
2022-10-08T10:22:40.662Z,2641.00
2022-10-08T10:23:40.896Z,2646.00
2022-10-08T10:24:41.208Z,2429.00
2022-10-08T10:25:41.437Z,1977.00
2022-10-08T10:26:41.652Z,1616.00
2022-10-08T10:27:42.252Z,1404.00
2022-10-08T10:28:42.374Z,1310.00
2022-10-08T10:29:42.628Z,1486.00
2022-10-08T10:30:42.924Z,1956.00
2022-10-08T10:31:43.137Z,2438.00
2022-10-08T10:32:43.376Z,2492.00
2022-10-08T10:33:43.656Z,3042.00
2022-10-08T10:34:43.936Z,2730.00
2022-10-08T10:35:44.245Z,2518.00
2022-10-08T10:36:44.501Z,2644.00
2022-10-08T10:37:44.765Z,2036.00
2022-10-08T10:38:45.003Z,1700.00
2022-10-08T10:39:45.239Z,1289.00
2022-10-08T10:40:45.505Z,1021.00
2022-10-08T10:41:45.843Z,919.00
2022-10-08T10:42:46.388Z,936.00
2022-10-08T10:43:46.354Z,738.00
2022-10-08T10:44:46.558Z,667.00
2022-10-08T10:45:46.934Z,607.00
2022-10-08T10:46:47.138Z,572.00
2022-10-08T10:47:47.432Z,503.00
2022-10-08T10:48:47.722Z,459.00
2022-10-08T10:49:47.963Z,430.00
2022-10-08T10:50:48.376Z,432.00
2022-10-08T10:51:48.898Z,409.00
2022-10-08T10:52:49.488Z,519.00
2022-10-08T10:53:49.231Z,722.00
2022-10-08T10:54:49.430Z,929.00
2022-10-08T10:55:54.443Z,1292.00
2022-10-08T10:56:51.010Z,1768.00
2022-10-08T10:57:50.266Z,1993.00
2022-10-08T10:58:50.575Z,2184.00
2022-10-08T10:59:50.782Z,2145.00
2022-10-08T11:00:51.073Z,2097.00
2022-10-08T11:01:51.411Z,2316.00
2022-10-08T11:02:52.160Z,2011.00
2022-10-08T11:03:51.839Z,2004.00
2022-10-08T11:04:52.172Z,2469.00
2022-10-08T11:05:52.905Z,2473.00
2022-10-08T11:06:52.743Z,2129.00
2022-10-08T11:07:53.038Z,1627.00
2022-10-08T11:08:53.358Z,5298.00
2022-10-08T11:09:53.556Z,2029.00
2022-10-08T11:10:53.933Z,4421.00
2022-10-08T11:11:54.050Z,2083.00
2022-10-08T11:12:54.286Z,2373.00
2022-10-08T11:13:54.598Z,2660.00
2022-10-08T11:14:54.823Z,3054.00
2022-10-08T11:15:55.151Z,3146.00
2022-10-08T11:16:55.355Z,3164.00
2022-10-08T11:17:55.625Z,11490.00
2022-10-08T11:18:55.861Z,2510.00
2022-10-08T11:19:56.149Z,1774.00
2022-10-08T11:20:56.432Z,1448.00
2022-10-08T11:21:56.668Z,1239.00
2022-10-08T11:22:56.927Z,1051.00
2022-10-08T11:23:57.187Z,914.00
2022-10-08T11:24:57.545Z,912.00
2022-10-08T11:26:20.516Z,915.00
2022-10-08T11:26:59.006Z,921.00
2022-10-08T11:27:58.271Z,923.00
2022-10-08T11:28:58.574Z,909.00
2022-10-08T11:29:58.846Z,919.00
2022-10-08T11:30:59.143Z,905.00
2022-10-08T11:31:59.362Z,865.00
2022-10-08T11:32:59.564Z,817.00
2022-10-08T11:33:59.935Z,693.00
2022-10-08T11:35:00.254Z,592.00
2022-10-08T11:36:00.460Z,598.00
2022-10-08T11:37:00.683Z,635.00
2022-10-08T11:38:00.940Z,698.00
2022-10-08T11:39:01.209Z,665.00
2022-10-08T11:40:01.487Z,650.00
2022-10-08T11:41:01.739Z,725.00
2022-10-08T11:42:01.972Z,692.00
2022-10-08T11:43:02.221Z,600.00
2022-10-08T11:44:02.543Z,528.00
2022-10-08T11:45:02.714Z,520.00
2022-10-08T11:46:02.973Z,505.00
2022-10-08T11:47:03.218Z,474.00
2022-10-08T11:48:06.477Z,531.00
2022-10-08T11:49:04.768Z,621.00
2022-10-08T11:50:04.010Z,672.00
2022-10-08T11:51:04.262Z,733.00
2022-10-08T11:52:04.503Z,851.00
2022-10-08T11:53:04.828Z,884.00
2022-10-08T11:54:05.020Z,665.00
2022-10-08T11:55:05.259Z,543.00
2022-10-08T11:56:05.520Z,527.00
2022-10-08T11:57:05.842Z,523.00
2022-10-08T11:58:08.122Z,529.00
2022-10-08T11:59:06.301Z,515.00
2022-10-08T12:00:08.592Z,541.00
2022-10-08T12:01:06.868Z,601.00
2022-10-08T12:02:07.226Z,711.00
2022-10-08T12:03:07.524Z,708.00
2022-10-08T12:04:07.654Z,628.00
2022-10-08T12:05:07.908Z,586.00
2022-10-08T12:06:08.155Z,592.00
2022-10-08T12:07:08.375Z,723.00
2022-10-08T12:08:08.807Z,771.00
2022-10-08T12:09:09.111Z,925.00
2022-10-08T12:10:09.247Z,1153.00
2022-10-08T12:11:09.516Z,1143.00
2022-10-08T12:12:10.275Z,1295.00
2022-10-08T12:13:14.064Z,1529.00
2022-10-08T12:14:11.431Z,2380.00
2022-10-08T12:15:10.679Z,3120.00
2022-10-08T12:16:10.992Z,2066.00
2022-10-08T12:17:11.222Z,1460.00
2022-10-08T12:18:11.455Z,1033.00
2022-10-08T12:19:11.713Z,640.00
2022-10-08T12:20:11.995Z,526.00
2022-10-08T12:21:12.234Z,651.00
2022-10-08T12:22:12.459Z,767.00
2022-10-08T12:23:12.736Z,933.00
2022-10-08T12:24:12.941Z,1322.00
2022-10-08T12:25:13.296Z,1146.00
2022-10-08T12:26:13.497Z,1083.00
2022-10-08T12:27:13.845Z,952.00
2022-10-08T12:28:14.129Z,813.00
2022-10-08T12:29:14.358Z,718.00
2022-10-08T12:30:14.595Z,763.00
2022-10-08T12:31:14.904Z,862.00
2022-10-08T12:32:15.094Z,1091.00
2022-10-08T12:33:15.323Z,1123.00
2022-10-08T12:34:15.601Z,1155.00
2022-10-08T12:35:15.846Z,939.00
2022-10-08T12:36:16.097Z,897.00
2022-10-08T12:37:16.765Z,938.00
2022-10-08T12:38:16.644Z,1001.00
2022-10-08T12:39:16.874Z,1045.00
2022-10-08T12:40:17.105Z,1764.00
2022-10-08T12:41:17.384Z,1277.00
2022-10-08T12:42:17.615Z,1296.00
2022-10-08T12:43:17.878Z,1223.00
2022-10-08T12:44:18.172Z,1059.00
2022-10-08T12:45:18.407Z,1563.00
2022-10-08T12:46:18.760Z,1542.00